Montalto di Castro, Italy

5:29 AM CET on December 15, 2017 (GMT +0100)
Stazione meteo ufficiale di Tarquinia (VT) a 142 mt slm | | Change Station

Elev 465 ft 42.25 °N, 11.76 °E | Updated 14 minutes ago

Mostly Cloudy
Mostly Cloudy
56.2 °F
Feels Like 56.2 °F
N
7.0
Wind Variable Wind from SW
Gusts 16.0 mph

Today
High -- | Low -- °F
--% Chance of Precip.
Yesterday
High -- | Low -- °F
Precip. -- in
Pressure 29.71 in
Visibility -9999.0 miles
Clouds
Dew Point 52 °F
Humidity 85%
Rainfall 0.00 in
Snow Depth Not available.
7:35 AM 4:41 PM
Waning Crescent, 8% visible
METAR LIRS 150355Z 14007KT CAVOK 13/11 Q1006 RMK SKC VIS MIN 9999 WIND THR03 15007KT WIND THR21 16006KT BLU
Pressure 29.71 in
Visibility -9999.0 miles
Clouds
Dew Point 52 °F
Humidity 85%
Rainfall 0.00 in
Snow Depth Not available.
7:35 AM 4:41 PM
Waning Crescent, 8% visible
METAR LIRS 150355Z 14007KT CAVOK 13/11 Q1006 RMK SKC VIS MIN 9999 WIND THR03 15007KT WIND THR21 16006KT BLU

Get Severe Weather Alerts

Thanks for signing up!

Be on the lookout for a verification email in your inbox.

You'll start receiving the daily forecast at 6 AM.

×

10-Day Weather Forecast

×

Almanac

Astronomy

Dec. 15, 2017 Rise Set
Actual Time
Civil Twilight
Nautical Twilight
Astronomical Twilight
Moon
Length of Visible Light
Length of Day
Tomorrow will be .
, % of the Moon is Illuminated

Today's Extremes

Country Highs Country Lows

Community

WunderPhotos

Category 6

Welcome to Category 6. This is the collective home for Weather Underground's featured writeups by Dr. Jeff Masters (right), Bob Henson (left), Chris Burt, and other regular contributors.

Nearby

Air Quality

  Air Quality AQ Index Pollutant
Not available.

Snow Depth

Station Depth Elevation

Earthquake Activity

City Distance Mag. Time & Date
Minimum magnitude displayed is 2.5.

Coastal Water Temperatures

Place Temperature

Stations

Nearby Weather Stations

Station Location Temp. Windchill Dew Point Humidity Wind Precip. Elev Updated Type